Time;durP1;ratioP1;P1;durP2;ratioP2;P2;SDS_P1;SDS_P2;PMS_P1;PMS_P2;Temp;Humidity;BMP_temperature;BMP_pressure;BME280_temperature;BME280_humidity;BME280_pressure;Samples;Min_cycle;Max_cycle;Signal;HPM_P1;HPM_P2
2021/08/14 00:02:38;;;;;;;0.40;0.13;;;;;;;14.31;100.00;100145.66;5011960;28;20072;-75
2021/08/14 00:05:41;;;;;;;9.52;0.55;;;;;;;14.27;100.00;100148.63;5011798;28;20068;-75
2021/08/14 00:08:45;;;;;;;0.88;0.40;;;;;;;14.21;100.00;100158.22;5011966;28;20137;-76
2021/08/14 00:11:48;;;;;;;0.88;0.65;;;;;;;14.16;100.00;100150.56;5011416;28;20089;-75
2021/08/14 00:14:51;;;;;;;0.40;0.20;;;;;;;14.07;100.00;100156.28;5012006;28;20057;-76
2021/08/14 00:17:54;;;;;;;0.40;0.15;;;;;;;14.04;100.00;100171.28;5007629;28;20053;-78
2021/08/14 00:20:57;;;;;;;2.80;0.43;;;;;;;14.01;100.00;100167.41;5012749;28;20132;-78
2021/08/14 00:24:00;;;;;;;0.57;0.57;;;;;;;13.94;100.00;100155.88;5011344;28;20149;-78
2021/08/14 00:27:04;;;;;;;0.82;0.20;;;;;;;13.97;100.00;100160.53;5006389;28;20107;-75
2021/08/14 00:30:07;;;;;;;1.42;0.38;;;;;;;13.91;100.00;100159.66;5011446;28;20104;-76
2021/08/14 00:33:10;;;;;;;6.90;0.47;;;;;;;13.89;100.00;100173.38;5006846;28;20713;-76
2021/08/14 00:36:13;;;;;;;0.10;0.10;;;;;;;13.86;100.00;100163.19;5007275;28;20108;-76
2021/08/14 00:39:16;;;;;;;1.10;0.20;;;;;;;13.80;100.00;100162.31;5007728;28;20052;-76
2021/08/14 00:42:19;;;;;;;4.40;0.57;;;;;;;13.67;100.00;100157.09;5008004;28;20061;-76
2021/08/14 00:45:22;;;;;;;2.38;0.10;;;;;;;13.53;100.00;100155.13;5011888;28;20088;-78
2021/08/14 00:48:26;;;;;;;1.00;0.10;;;;;;;13.51;100.00;100157.66;5003179;28;20141;-77
2021/08/14 00:51:29;;;;;;;3.70;0.52;;;;;;;13.55;100.00;100156.19;5011208;28;20137;-77
2021/08/14 00:54:32;;;;;;;1.38;0.60;;;;;;;13.54;100.00;100140.63;5011672;28;20056;-76
2021/08/14 00:57:36;;;;;;;4.75;0.35;;;;;;;13.56;100.00;100135.31;5011412;28;20061;-76
2021/08/14 01:00:40;;;;;;;1.10;0.38;;;;;;;13.60;100.00;100146.28;5011463;28;20163;-75
2021/08/14 01:03:44;;;;;;;0.98;0.25;;;;;;;13.61;100.00;100145.81;5011666;28;20065;-75
2021/08/14 01:06:48;;;;;;;1.55;0.45;;;;;;;13.64;100.00;100139.22;5011212;28;20108;-75
2021/08/14 01:09:50;;;;;;;0.88;0.20;;;;;;;13.73;100.00;100132.72;5011376;28;20080;-76
2021/08/14 01:12:55;;;;;;;1.92;0.57;;;;;;;13.76;100.00;100131.75;5011543;28;20065;-76
2021/08/14 01:15:59;;;;;;;0.15;0.15;;;;;;;13.73;100.00;100134.78;5007943;28;20064;-76
2021/08/14 01:19:04;;;;;;;0.55;0.38;;;;;;;13.75;100.00;100149.03;5011127;28;20064;-76
2021/08/14 01:22:12;;;;;;;0.32;0.13;;;;;;;13.77;100.00;100129.72;5006348;28;20057;-76
2021/08/14 01:25:17;;;;;;;2.65;0.50;;;;;;;13.80;100.00;100125.94;5010946;28;20053;-76
2021/08/14 01:28:20;;;;;;;0.60;0.20;;;;;;;13.80;100.00;100118.31;5014899;28;20065;-76
2021/08/14 01:31:22;;;;;;;0.20;0.20;;;;;;;13.83;100.00;100134.13;5015074;28;20083;-76
2021/08/14 01:34:26;;;;;;;1.33;0.30;;;;;;;13.86;100.00;100132.38;5014752;28;20467;-76
2021/08/14 01:37:30;;;;;;;2.75;0.68;;;;;;;13.88;100.00;100125.00;5014389;28;20423;-78
2021/08/14 01:40:33;;;;;;;5.50;0.38;;;;;;;13.88;100.00;100127.81;5014829;28;20124;-75
2021/08/14 01:44:00;;;;;;;4.85;1.10;;;;;;;13.87;100.00;100128.31;5014767;28;20080;-74
2021/08/14 01:47:03;;;;;;;5.40;0.30;;;;;;;13.85;100.00;100119.63;5009480;28;20068;-74
2021/08/14 01:50:07;;;;;;;0.50;0.25;;;;;;;13.81;100.00;100119.09;5014686;28;20065;-77
2021/08/14 01:53:10;;;;;;;0.68;0.17;;;;;;;13.84;100.00;100110.47;5014389;28;20108;-75
2021/08/14 01:56:13;;;;;;;3.65;0.38;;;;;;;13.85;100.00;100122.44;5014499;28;20080;-76
2021/08/14 01:59:16;;;;;;;1.13;0.30;;;;;;;13.85;100.00;100119.63;5014665;28;20104;-74
2021/08/14 02:02:19;;;;;;;0.50;0.20;;;;;;;13.87;100.00;100120.69;5014061;28;20064;-76
2021/08/14 02:05:23;;;;;;;3.85;0.55;;;;;;;13.89;100.00;100120.97;5013482;28;20052;-76
2021/08/14 02:08:25;;;;;;;1.20;0.22;;;;;;;13.92;100.00;100124.81;5012451;28;20104;-76
2021/08/14 02:11:35;;;;;;;0.20;0.10;;;;;;;13.92;100.00;100113.63;5012827;28;20103;-75
2021/08/14 02:14:38;;;;;;;2.95;0.47;;;;;;;13.92;100.00;100110.81;5011486;28;20115;-76
2021/08/14 02:17:42;;;;;;;2.55;0.43;;;;;;;13.99;100.00;100118.78;5014040;28;20396;-77
2021/08/14 02:20:45;;;;;;;4.03;0.20;;;;;;;13.92;100.00;100120.00;5006242;28;20069;-77
2021/08/14 02:23:48;;;;;;;0.65;0.25;;;;;;;13.94;100.00;100125.09;5006951;28;20130;-76
2021/08/14 02:26:51;;;;;;;0.40;0.20;;;;;;;13.91;100.00;100112.06;5006957;28;20574;-77
2021/08/14 02:29:54;;;;;;;2.20;0.65;;;;;;;13.91;100.00;100112.06;5007735;28;20064;-77
2021/08/14 02:32:57;;;;;;;0.10;0.00;;;;;;;13.88;100.00;100113.06;5007844;28;20527;-76
2021/08/14 02:36:02;;;;;;;1.17;0.32;;;;;;;13.89;100.00;100109.75;5007349;28;20522;-77
2021/08/14 02:39:05;;;;;;;0.90;0.40;;;;;;;13.92;100.00;100113.63;5013778;28;20216;-76
2021/08/14 02:42:08;;;;;;;1.65;0.40;;;;;;;13.92;100.00;100102.41;5013795;28;20519;-77
2021/08/14 02:45:12;;;;;;;0.32;0.30;;;;;;;13.96;100.00;100102.97;5013945;28;20131;-77
2021/08/14 02:48:15;;;;;;;3.47;0.30;;;;;;;13.96;100.00;100100.16;5013825;28;20061;-77
2021/08/14 02:51:18;;;;;;;0.75;0.35;;;;;;;13.99;100.00;100102.00;5009437;28;20049;-77
2021/08/14 02:54:20;;;;;;;6.28;0.50;;;;;;;13.99;100.00;100102.75;5013569;28;20420;-75
2021/08/14 02:57:24;;;;;;;0.55;0.43;;;;;;;14.04;100.00;100095.66;5013169;28;20465;-76
2021/08/14 03:00:28;;;;;;;0.82;0.50;;;;;;;14.06;100.00;100101.53;5013322;28;20510;-75
2021/08/14 03:03:31;;;;;;;2.05;0.35;;;;;;;14.06;100.00;100090.34;5013222;28;20061;-76
2021/08/14 03:06:34;;;;;;;0.30;0.10;;;;;;;14.04;100.00;100106.88;5013194;28;20112;-75
2021/08/14 03:09:37;;;;;;;1.13;0.25;;;;;;;14.07;100.00;100097.50;5013376;28;20092;-75
2021/08/14 03:12:40;;;;;;;7.05;0.47;;;;;;;14.09;100.00;100106.94;5012859;28;20080;-74
2021/08/14 03:15:43;;;;;;;0.63;0.35;;;;;;;14.11;100.00;100104.41;5005045;28;20093;-75
2021/08/14 03:18:47;;;;;;;1.98;0.40;;;;;;;14.11;100.00;100101.59;5005009;28;20057;-75
2021/08/14 03:21:50;;;;;;;6.60;0.70;;;;;;;14.10;100.00;100102.84;5005694;28;20222;-75
2021/08/14 03:24:53;;;;;;;9.75;0.40;;;;;;;14.10;100.00;100113.28;5006454;28;20125;-75
2021/08/14 03:27:56;;;;;;;0.63;0.10;;;;;;;14.09;100.00;100111.75;5006746;28;20061;-76
2021/08/14 03:30:59;;;;;;;0.80;0.30;;;;;;;14.07;100.00;100097.50;5006986;28;20108;-76
2021/08/14 03:34:02;;;;;;;0.43;0.30;;;;;;;14.05;100.00;100103.59;5012509;28;20057;-77
2021/08/14 03:37:05;;;;;;;1.65;0.80;;;;;;;14.06;100.00;100105.13;5012496;28;20119;-76
2021/08/14 03:40:10;;;;;;;2.38;0.35;;;;;;;14.08;100.00;100107.41;5012817;28;20134;-76
2021/08/14 03:43:13;;;;;;;1.05;0.20;;;;;;;14.05;100.00;100100.00;5012790;28;20411;-77
2021/08/14 03:46:15;;;;;;;0.93;0.38;;;;;;;14.08;100.00;100104.59;5011897;28;20111;-75
2021/08/14 03:49:19;;;;;;;0.73;0.57;;;;;;;14.07;100.00;100089.09;5012109;28;20478;-75
2021/08/14 03:52:23;;;;;;;0.75;0.32;;;;;;;14.04;100.00;100092.88;4973158;28;20094;-75
2021/08/14 03:55:26;;;;;;;1.23;0.35;;;;;;;14.03;100.00;100085.75;4973546;28;20062;-75
2021/08/14 03:58:34;;;;;;;3.22;0.43;;;;;;;14.00;100.00;100095.13;4973197;28;20232;-75
2021/08/14 04:01:36;;;;;;;0.45;0.20;;;;;;;13.95;100.00;100081.81;4972964;28;20806;-76
2021/08/14 04:04:40;;;;;;;1.60;0.20;;;;;;;13.94;100.00;100077.50;4973304;28;20085;-76
2021/08/14 04:07:43;;;;;;;0.28;0.20;;;;;;;13.93;100.00;100085.13;4973421;28;20398;-76
2021/08/14 04:10:46;;;;;;;5.93;0.25;;;;;;;13.89;100.00;100086.59;4973553;28;20082;-77
2021/08/14 04:13:49;;;;;;;1.10;0.22;;;;;;;13.92;100.00;100082.81;4972633;28;20149;-77
2021/08/14 04:16:52;;;;;;;4.03;0.47;;;;;;;13.89;100.00;100092.19;4972327;28;20053;-75
2021/08/14 04:19:55;;;;;;;2.65;0.73;;;;;;;13.90;100.00;100105.72;4972638;28;20112;-75
2021/08/14 04:22:58;;;;;;;1.42;0.50;;;;;;;13.85;100.00;100108.44;4973117;28;20102;-75
2021/08/14 04:26:02;;;;;;;2.00;0.60;;;;;;;13.83;100.00;100105.38;4983589;28;20074;-76
2021/08/14 04:29:04;;;;;;;0.82;0.20;;;;;;;13.79;100.00;100110.41;4973082;28;20078;-75
2021/08/14 04:32:10;;;;;;;3.05;0.65;;;;;;;13.74;100.00;100099.91;4972842;28;20062;-75
2021/08/14 04:35:14;;;;;;;0.95;0.50;;;;;;;13.78;100.00;100090.03;4972117;28;20141;-75
2021/08/14 04:38:17;;;;;;;0.30;0.30;;;;;;;13.73;100.00;100095.59;4972343;28;20120;-75
2021/08/14 04:41:20;;;;;;;0.50;0.35;;;;;;;13.68;100.00;100089.44;4971741;28;20109;-75
2021/08/14 04:44:23;;;;;;;4.07;0.52;;;;;;;13.63;100.00;100092.94;4972836;28;20127;-75
2021/08/14 04:47:26;;;;;;;2.17;0.15;;;;;;;13.55;100.00;100105.03;4972408;28;20104;-77
2021/08/14 04:50:29;;;;;;;0.43;0.43;;;;;;;13.49;100.00;100104.94;4981895;28;20068;-75
2021/08/14 04:53:33;;;;;;;5.03;0.47;;;;;;;13.45;100.00;100107.19;5011098;28;20053;-75
2021/08/14 04:56:37;;;;;;;1.80;0.50;;;;;;;13.40;100.00;100107.91;5011064;28;20088;-75
2021/08/14 04:59:40;;;;;;;9.32;0.82;;;;;;;13.33;100.00;100113.91;5011385;28;20111;-77
2021/08/14 05:02:43;;;;;;;2.20;0.90;;;;;;;13.31;100.00;100115.66;5011267;28;20140;-77
2021/08/14 05:05:47;;;;;;;0.60;0.40;;;;;;;13.28;100.00;100111.78;5009154;28;20108;-76
2021/08/14 05:08:50;;;;;;;0.93;0.20;;;;;;;13.30;100.00;100119.69;5003291;28;20084;-76
2021/08/14 05:11:53;;;;;;;0.95;0.50;;;;;;;13.34;100.00;100115.44;5004936;28;20081;-76
2021/08/14 05:14:56;;;;;;;8.85;0.70;;;;;;;13.38;100.00;100113.19;5005337;28;20061;-77
2021/08/14 05:17:59;;;;;;;0.68;0.50;;;;;;;13.42;100.00;100113.78;5004767;28;20416;-77
2021/08/14 05:21:02;;;;;;;3.92;0.70;;;;;;;13.46;100.00;100121.97;5000143;28;20061;-76
2021/08/14 05:24:06;;;;;;;1.05;0.45;;;;;;;13.51;100.00;100122.03;4995866;28;20049;-75
2021/08/14 05:27:09;;;;;;;0.40;0.30;;;;;;;13.55;100.00;100119.03;5002429;28;20148;-77
2021/08/14 05:30:13;;;;;;;0.55;0.40;;;;;;;13.58;100.00;100123.63;4998120;28;20068;-77
2021/08/14 05:33:15;;;;;;;4.47;0.20;;;;;;;13.59;100.00;100130.78;4997008;28;20065;-76
2021/08/14 05:36:18;;;;;;;0.95;0.20;;;;;;;13.66;100.00;100135.97;4999703;28;20053;-76
2021/08/14 05:39:21;;;;;;;0.47;0.35;;;;;;;13.80;100.00;100134.34;4999922;28;20101;-75
2021/08/14 05:42:24;;;;;;;0.52;0.22;;;;;;;13.90;100.00;100133.72;5008215;28;20428;-77
2021/08/14 05:45:27;;;;;;;0.75;0.68;;;;;;;13.97;100.00;100126.91;4999385;28;20146;-77
2021/08/14 05:48:30;;;;;;;1.77;0.25;;;;;;;14.05;100.00;100133.63;5001955;28;20412;-77
2021/08/14 05:51:36;;;;;;;1.40;0.28;;;;;;;14.12;100.00;100133.19;5007485;28;20524;-77
2021/08/14 05:54:39;;;;;;;1.17;0.40;;;;;;;14.17;100.00;100124.84;5005817;28;20128;-77
2021/08/14 05:57:42;;;;;;;1.13;0.63;;;;;;;14.22;100.00;100131.75;5005669;28;20456;-77
2021/08/14 06:00:45;;;;;;;1.77;0.45;;;;;;;14.27;100.00;100134.59;4991620;28;20065;-76
2021/08/14 06:03:49;;;;;;;2.95;0.32;;;;;;;14.32;100.00;100135.97;4994796;28;20523;-77
2021/08/14 06:06:52;;;;;;;1.23;0.40;;;;;;;14.37;100.00;100132.44;4999983;28;20057;-76
2021/08/14 06:09:55;;;;;;;0.17;0.17;;;;;;;14.44;100.00;100132.00;5001639;28;20539;-76
2021/08/14 06:12:58;;;;;;;1.58;0.40;;;;;;;14.56;100.00;100139.25;5004667;28;20112;-77
2021/08/14 06:16:03;;;;;;;0.63;0.20;;;;;;;14.71;100.00;100130.69;5012678;28;20100;-77
2021/08/14 06:19:06;;;;;;;0.40;0.20;;;;;;;14.90;100.00;100127.03;5012611;28;20653;-77
2021/08/14 06:22:09;;;;;;;2.17;0.60;;;;;;;15.02;100.00;100128.66;5012124;28;20069;-77
2021/08/14 06:25:14;;;;;;;1.98;0.80;;;;;;;15.10;100.00;100129.75;5013540;28;20136;-76
2021/08/14 06:28:16;;;;;;;1.80;0.57;;;;;;;15.22;100.00;100132.63;5012656;28;20057;-77
2021/08/14 06:31:19;;;;;;;1.27;0.20;;;;;;;15.20;100.00;100131.06;5011158;28;20061;-77
2021/08/14 06:34:22;;;;;;;2.00;0.45;;;;;;;15.24;100.00;100141.31;5011006;28;20088;-77
2021/08/14 06:37:25;;;;;;;2.55;0.50;;;;;;;15.29;100.00;100137.78;5012036;28;20088;-77
2021/08/14 06:40:28;;;;;;;3.58;0.28;;;;;;;15.33;100.00;100124.28;5011902;28;20081;-77
2021/08/14 06:43:31;;;;;;;2.38;0.65;;;;;;;15.34;100.00;100128.59;5012143;28;20061;-77
2021/08/14 06:46:35;;;;;;;0.70;0.25;;;;;;;15.34;100.00;100122.97;5013396;28;20119;-76
2021/08/14 06:49:38;;;;;;;6.47;1.08;;;;;;;15.40;100.00;100123.81;5013287;28;20134;-75
2021/08/14 06:52:41;;;;;;;4.03;0.30;;;;;;;15.50;100.00;100125.16;5013322;28;20060;-77
2021/08/14 06:55:44;;;;;;;5.57;0.40;;;;;;;15.55;100.00;100130.03;5013526;28;20084;-76
2021/08/14 06:58:47;;;;;;;1.38;0.65;;;;;;;15.74;100.00;100128.34;5013365;28;20049;-75
2021/08/14 07:01:50;;;;;;;0.95;0.38;;;;;;;15.79;100.00;100130.38;5013831;28;20408;-75
2021/08/14 07:04:54;;;;;;;2.28;0.35;;;;;;;15.86;100.00;100146.75;5012821;28;20085;-74
2021/08/14 07:07:57;;;;;;;3.53;0.30;;;;;;;15.93;100.00;100132.22;5013382;28;20112;-74
2021/08/14 07:11:00;;;;;;;1.70;0.45;;;;;;;16.01;100.00;100124.84;5012850;28;20643;-74
2021/08/14 07:14:03;;;;;;;1.05;0.57;;;;;;;16.16;100.00;100114.16;5012383;28;20057;-75
2021/08/14 07:17:07;;;;;;;2.17;0.57;;;;;;;16.33;100.00;100106.50;5002732;28;20084;-75
2021/08/14 07:20:11;;;;;;;1.75;0.20;;;;;;;16.47;100.00;100107.56;5002957;28;20061;-75
2021/08/14 07:23:14;;;;;;;0.35;0.35;;;;;;;16.54;100.00;100115.53;5005164;28;20054;-75
2021/08/14 07:26:17;;;;;;;5.60;1.48;;;;;;;16.60;100.00;100113.47;5000143;28;20073;-76
2021/08/14 07:29:20;;;;;;;0.70;0.30;;;;;;;16.71;100.00;100118.31;5003460;28;20065;-76
2021/08/14 07:32:23;;;;;;;0.60;0.30;;;;;;;16.80;100.00;100127.28;5003896;28;20105;-74
2021/08/14 07:35:28;;;;;;;4.57;0.55;;;;;;;16.86;100.00;100121.66;5009266;28;20044;-74
2021/08/14 07:38:31;;;;;;;0.98;0.43;;;;;;;17.02;100.00;100109.63;5006575;28;20065;-75
2021/08/14 07:41:34;;;;;;;2.65;0.20;;;;;;;17.06;100.00;100105.25;5011180;28;20704;-74
2021/08/14 07:44:37;;;;;;;5.70;0.95;;;;;;;17.17;100.00;100116.47;5003684;28;20064;-74
2021/08/14 07:47:40;;;;;;;3.95;0.47;;;;;;;17.29;100.00;100117.22;5006472;28;20057;-77
2021/08/14 07:50:43;;;;;;;4.28;0.52;;;;;;;17.42;100.00;100120.28;5006753;28;20065;-75
2021/08/14 07:53:46;;;;;;;0.55;0.13;;;;;;;17.42;100.00;100109.78;5010662;28;20532;-74
2021/08/14 07:56:49;;;;;;;2.22;0.43;;;;;;;17.40;100.00;100108.75;5005149;28;20271;-75
2021/08/14 07:59:53;;;;;;;1.40;0.17;;;;;;;17.45;100.00;100107.97;5005917;28;20068;-75
2021/08/14 08:02:56;;;;;;;1.10;0.73;;;;;;;17.41;100.00;100108.22;4973753;28;20080;-78
2021/08/14 08:06:00;;;;;;;1.08;0.28;;;;;;;17.35;100.00;100110.31;5005692;28;20061;-77
2021/08/14 08:09:03;;;;;;;0.30;0.20;;;;;;;17.38;100.00;100114.13;5011417;28;20130;-76
2021/08/14 08:12:06;;;;;;;1.83;0.35;;;;;;;17.51;100.00;100111.56;5012123;28;20102;-77
2021/08/14 08:15:12;;;;;;;4.15;0.75;;;;;;;17.65;100.00;100104.84;5007945;28;20112;-77
2021/08/14 08:18:15;;;;;;;4.22;0.45;;;;;;;17.65;100.00;100110.47;5011935;28;20127;-76
2021/08/14 08:21:18;;;;;;;0.75;0.30;;;;;;;17.65;100.00;100107.66;5007454;28;20060;-75
2021/08/14 08:24:21;;;;;;;2.75;0.30;;;;;;;17.76;100.00;100104.81;5012080;28;20100;-75
2021/08/14 08:27:25;;;;;;;1.00;0.10;;;;;;;17.88;100.00;100111.94;5012129;28;20512;-75
2021/08/14 08:30:31;;;;;;;2.10;0.20;;;;;;;17.87;100.00;100103.97;5011884;28;20531;-76
2021/08/14 08:33:34;;;;;;;3.78;0.90;;;;;;;17.81;100.00;100101.19;5011261;28;20091;-76
2021/08/14 08:36:37;;;;;;;0.70;0.15;;;;;;;17.77;100.00;100122.47;5011390;28;20152;-76
2021/08/14 08:39:40;;;;;;;0.50;0.28;;;;;;;17.97;100.00;100117.28;5009999;28;20057;-75
2021/08/14 08:42:45;;;;;;;3.42;0.17;;;;;;;18.27;100.00;100108.13;5002735;28;20069;-75
2021/08/14 08:45:48;;;;;;;12.15;0.60;;;;;;;18.36;100.00;100108.56;5011029;28;20116;-75
2021/08/14 08:48:52;;;;;;;2.70;0.40;;;;;;;18.43;100.00;100110.81;5011219;28;20061;-75
2021/08/14 08:51:55;;;;;;;0.40;0.10;;;;;;;18.63;100.00;100112.50;5010401;28;20112;-75
2021/08/14 08:54:58;;;;;;;3.58;0.30;;;;;;;18.65;100.00;100109.91;5011674;28;20076;-76
2021/08/14 08:58:01;;;;;;;0.35;0.20;;;;;;;18.46;100.00;100103.41;5011112;28;20092;-76
2021/08/14 09:01:04;;;;;;;0.63;0.13;;;;;;;18.53;100.00;100108.47;5006317;28;20080;-76
2021/08/14 09:04:27;;;;;;;0.45;0.20;;;;;;;18.64;100.00;100109.16;5006194;28;20134;-76
2021/08/14 09:07:30;;;;;;;4.22;0.32;;;;;;;18.79;100.00;100103.91;5010420;28;20120;-75
2021/08/14 09:10:34;;;;;;;5.03;0.60;;;;;;;18.97;100.00;100107.34;5010779;28;20061;-76
2021/08/14 09:13:41;;;;;;;1.40;0.10;;;;;;;19.20;100.00;100109.41;5011201;28;20061;-76
2021/08/14 09:16:44;;;;;;;4.22;0.50;;;;;;;19.18;100.00;100106.34;5011031;28;20473;-76
2021/08/14 09:19:48;;;;;;;3.67;0.30;;;;;;;18.88;100.00;100111.28;5011117;28;20076;-76
2021/08/14 09:23:05;;;;;;;0.73;0.28;;;;;;;18.73;100.00;100116.53;5010790;28;20065;-75
2021/08/14 09:26:08;;;;;;;6.10;0.10;;;;;;;18.61;100.00;100123.53;5006193;28;20061;-77
2021/08/14 09:29:11;;;;;;;2.05;0.60;;;;;;;18.55;100.00;100122.81;5006452;28;20416;-75
2021/08/14 09:32:19;;;;;;;1.02;0.30;;;;;;;18.50;100.00;100120.78;5011028;28;20576;-75
2021/08/14 09:35:26;;;;;;;2.88;0.20;;;;;;;18.56;100.00;100115.91;5009997;28;20511;-75
2021/08/14 09:38:49;;;;;;;4.43;0.30;;;;;;;18.67;100.00;100125.03;5010558;28;20061;-77
2021/08/14 09:42:05;;;;;;;0.63;0.10;;;;;;;18.69;100.00;100127.34;5010936;28;20428;-77
2021/08/14 09:45:18;;;;;;;4.50;0.17;;;;;;;18.63;100.00;100123.78;5011338;28;20057;-77
2021/08/14 09:48:23;;;;;;;3.72;0.73;;;;;;;18.59;100.00;100134.59;5011149;28;20065;-75
2021/08/14 09:51:31;;;;;;;4.68;0.38;;;;;;;18.57;100.00;100126.66;5014317;28;20463;-76
2021/08/14 09:54:37;;;;;;;2.15;0.45;;;;;;;18.63;100.00;100141.47;5014653;28;20061;-75
2021/08/14 09:57:42;;;;;;;1.50;0.20;;;;;;;18.80;100.00;100144.16;5014169;28;20072;-75
2021/08/14 10:00:45;;;;;;;3.38;0.68;;;;;;;18.78;100.00;100139.03;5014675;28;20088;-75
2021/08/14 10:03:49;;;;;;;1.25;0.28;;;;;;;18.72;100.00;100143.19;5007172;28;20571;-77
2021/08/14 10:06:52;;;;;;;0.60;0.15;;;;;;;18.61;100.00;100132.00;5014402;28;20084;-77
2021/08/14 10:09:55;;;;;;;0.35;0.30;;;;;;;18.54;100.00;100135.38;5008229;28;20107;-75
2021/08/14 10:13:00;;;;;;;1.30;0.40;;;;;;;18.58;100.00;100133.06;5014394;28;20060;-75
2021/08/14 10:16:03;;;;;;;2.40;0.68;;;;;;;18.67;100.00;100138.34;5014477;28;20519;-75
2021/08/14 10:19:06;;;;;;;2.95;0.98;;;;;;;18.86;100.00;100137.19;5014214;28;20582;-74
2021/08/14 10:22:10;;;;;;;7.40;0.20;;;;;;;18.99;100.00;100141.44;5014034;28;20088;-74
2021/08/14 10:25:17;;;;;;;3.53;0.40;;;;;;;19.09;100.00;100132.09;5010405;28;20065;-77
2021/08/14 10:28:41;;;;;;;12.63;1.95;;;;;;;19.05;100.00;100134.47;5013895;28;20108;-77
2021/08/14 10:31:46;;;;;;;0.65;0.20;;;;;;;19.08;100.00;100130.56;5013238;28;20446;-77
2021/08/14 10:34:49;;;;;;;4.45;0.20;;;;;;;19.22;100.00;100134.28;5006485;28;20526;-76
2021/08/14 10:37:52;;;;;;;0.70;0.28;;;;;;;19.43;100.00;100138.97;5013695;28;20589;-77
2021/08/14 10:41:00;;;;;;;0.73;0.10;;;;;;;19.46;100.00;100137.91;5006773;28;20060;-77
2021/08/14 10:44:04;;;;;;;7.20;0.60;;;;;;;19.51;100.00;100134.25;4994457;28;20149;-76
2021/08/14 10:47:32;;;;;;;1.65;0.35;;;;;;;19.63;100.00;100140.56;4993544;28;20432;-77
2021/08/14 10:50:35;;;;;;;4.53;1.08;;;;;;;19.58;100.00;100135.72;4992949;28;20092;-77
2021/08/14 10:53:42;;;;;;;2.42;0.35;;;;;;;19.72;100.00;100128.13;4993852;28;20058;-80
2021/08/14 10:56:52;;;;;;;0.75;0.15;;;;;;;19.84;100.00;100115.41;4993657;28;20065;-80
2021/08/14 10:59:59;;;;;;;1.05;0.25;;;;;;;19.77;100.00;100119.59;4994133;28;20538;-80
2021/08/14 11:03:06;;;;;;;1.10;0.10;;;;;;;19.65;100.00;100127.44;4993798;28;20452;-77
2021/08/14 11:06:27;;;;;;;5.00;0.47;;;;;;;19.57;100.00;100126.50;4989410;28;20061;-77
2021/08/14 11:09:31;;;;;;;;;;;;;;;19.51;100.00;100134.25;4994012;28;20484;-77
2021/08/14 11:12:48;;;;;;;2.47;0.32;;;;;;;19.52;100.00;100135.78;4993722;28;19928;-77
2021/08/14 11:15:50;;;;;;;2.15;0.40;;;;;;;19.58;100.00;100125.19;4993801;28;20186;-76
2021/08/14 11:18:56;;;;;;;1.38;0.10;;;;;;;19.60;100.00;100136.72;4993066;28;20081;-76
2021/08/14 11:22:32;;;;;;;0.20;0.10;;;;;;;19.52;100.00;100130.16;4993439;28;20108;-77
2021/08/14 11:25:40;;;;;;;1.35;0.20;;;;;;;19.67;100.00;100129.72;4993226;28;20069;-77
2021/08/14 11:28:50;;;;;;;3.95;0.47;;;;;;;19.67;100.00;100136.13;4993476;28;20116;-78
2021/08/14 11:31:56;;;;;;;2.60;0.10;;;;;;;19.74;100.00;100134.00;4993506;28;20112;-77
2021/08/14 11:34:59;;;;;;;0.55;0.20;;;;;;;20.02;100.00;100123.88;4986213;28;20123;-75
2021/08/14 11:38:08;;;;;;;4.68;0.28;;;;;;;20.45;100.00;100128.69;4993025;28;20061;-76
2021/08/14 11:41:13;;;;;;;1.65;0.25;;;;;;;20.64;100.00;100138.66;4993169;28;20072;-76
2021/08/14 11:44:19;;;;;;;1.98;0.20;;;;;;;20.38;100.00;100130.06;4992495;28;20109;-76
2021/08/14 11:47:34;;;;;;;1.65;0.20;;;;;;;20.27;100.00;100130.25;4991491;28;20058;-75
2021/08/14 11:50:43;;;;;;;0.55;0.10;;;;;;;20.23;100.00;100135.44;4992424;28;20124;-75
2021/08/14 11:53:46;;;;;;;1.23;0.30;;;;;;;20.05;100.00;100130.53;4992694;28;20177;-74
2021/08/14 11:56:49;;;;;;;0.50;0.30;;;;;;;19.99;100.00;100132.66;4991377;28;20225;-75
2021/08/14 11:59:52;;;;;;;0.55;0.20;;;;;;;19.90;100.00;100130.22;4993035;28;20424;-75
2021/08/14 12:03:15;;;;;;;3.13;0.10;;;;;;;19.77;100.00;100127.28;4992578;28;20062;-75
2021/08/14 12:06:19;;;;;;;3.70;0.90;;;;;;;19.54;100.00;100126.78;4992242;28;20065;-77
2021/08/14 12:09:24;;;;;;;0.98;0.20;;;;;;;19.38;100.00;100122.84;4992352;28;20103;-79
2021/08/14 12:12:28;;;;;;;1.13;0.17;;;;;;;19.27;100.00;100114.47;4992631;28;20053;-78
2021/08/14 12:15:42;;;;;;;0.40;0.22;;;;;;;19.23;100.00;100119.63;4992771;28;20065;-78
2021/08/14 12:18:50;;;;;;;2.22;0.10;;;;;;;19.18;100.00;100116.88;4992590;28;20108;-79
2021/08/14 12:22:11;;;;;;;8.20;0.98;;;;;;;19.10;100.00;100111.03;4992674;28;20139;-77
2021/08/14 12:25:24;;;;;;;12.43;0.88;;;;;;;19.25;100.00;100105.75;5006088;28;20080;-78
2021/08/14 12:28:32;;;;;;;0.90;0.28;;;;;;;19.35;100.00;100106.19;5009475;28;20104;-76
2021/08/14 12:31:44;;;;;;;0.40;0.10;;;;;;;19.39;100.00;100109.50;5011461;28;20053;-77
2021/08/14 12:34:48;;;;;;;0.65;0.10;;;;;;;19.58;100.00;100102.59;5010627;28;20061;-77
2021/08/14 12:37:51;;;;;;;0.20;0.10;;;;;;;19.61;100.00;100103.59;5004803;28;20056;-78
2021/08/14 12:40:55;;;;;;;2.92;0.10;;;;;;;19.52;100.00;100112.41;5011105;28;20204;-77
2021/08/14 12:43:58;;;;;;;2.75;0.30;;;;;;;19.36;100.00;100102.84;5001075;28;20447;-76
2021/08/14 12:47:01;;;;;;;2.60;0.13;;;;;;;19.24;100.00;100115.53;5008453;28;20057;-76
2021/08/14 12:50:25;;;;;;;4.03;0.20;;;;;;;19.09;100.00;100120.03;4992189;28;20069;-76
2021/08/14 12:53:28;;;;;;;3.88;0.38;;;;;;;18.95;100.00;100116.31;4999447;28;20468;-76
2021/08/14 12:56:33;;;;;;;7.05;0.50;;;;;;;18.95;100.00;100116.31;5007049;28;20188;-75
2021/08/14 12:59:37;;;;;;;3.08;0.28;;;;;;;18.91;100.00;100104.56;5005939;28;20549;-74
2021/08/14 13:02:40;;;;;;;3.72;0.25;;;;;;;18.95;100.00;100110.66;5006266;28;20582;-75
2021/08/14 13:05:43;;;;;;;0.38;0.10;;;;;;;18.91;100.00;100110.19;5006795;28;20061;-76
2021/08/14 13:08:46;;;;;;;1.40;0.20;;;;;;;18.84;100.00;100110.78;4999162;28;20061;-75
2021/08/14 13:11:50;;;;;;;5.55;0.15;;;;;;;18.91;100.00;100093.25;5007095;28;20499;-75
2021/08/14 13:14:53;;;;;;;1.52;0.30;;;;;;;18.83;100.00;100098.75;4991501;28;20076;-75
2021/08/14 13:17:57;;;;;;;2.28;0.10;;;;;;;18.82;100.00;100096.41;4984119;28;20141;-75
2021/08/14 13:21:00;;;;;;;5.25;1.33;;;;;;;18.99;100.00;100099.88;4997989;28;20169;-75
2021/08/14 13:24:06;;;;;;;1.48;0.20;;;;;;;19.24;100.00;100086.53;4998360;28;20057;-74
2021/08/14 13:27:09;;;;;;;2.15;0.30;;;;;;;19.24;100.00;100092.94;4997503;28;20544;-75
2021/08/14 13:30:20;;;;;;;2.60;0.45;;;;;;;19.03;100.00;100094.69;4996035;28;20132;-74
2021/08/14 13:33:24;;;;;;;2.65;0.43;;;;;;;18.77;100.00;100095.22;4995458;28;20124;-74
2021/08/14 13:36:26;;;;;;;3.72;0.65;;;;;;;18.66;100.00;100097.34;4996032;28;20077;-74
2021/08/14 13:39:30;;;;;;;3.72;0.57;;;;;;;18.53;100.00;100094.38;4995999;28;20135;-75
2021/08/14 13:42:34;;;;;;;5.65;0.82;;;;;;;18.47;100.00;100093.66;5007225;28;20519;-75
2021/08/14 13:45:36;;;;;;;2.10;0.65;;;;;;;18.50;100.00;100081.31;5017612;28;20200;-75
2021/08/14 13:48:40;;;;;;;1.65;0.22;;;;;;;18.59;100.00;100086.63;5017394;28;20427;-75
2021/08/14 13:51:43;;;;;;;4.15;0.47;;;;;;;18.75;100.00;100091.38;5017224;28;20080;-75
2021/08/14 13:54:46;;;;;;;2.28;0.40;;;;;;;18.91;100.00;100081.97;5017223;28;20064;-75
2021/08/14 13:57:49;;;;;;;4.25;0.38;;;;;;;19.18;100.00;100083.78;5010379;28;20176;-75
2021/08/14 14:00:52;;;;;;;2.00;0.20;;;;;;;19.28;100.00;100076.47;5017674;28;20088;-75
2021/08/14 14:03:55;;;;;;;3.20;0.22;;;;;;;19.41;100.00;100062.47;5011491;28;20068;-76
2021/08/14 14:06:59;;;;;;;10.93;1.13;;;;;;;19.59;100.00;100064.56;5017666;28;20057;-75
2021/08/14 14:10:02;;;;;;;4.97;0.45;;;;;;;19.76;100.00;100064.34;5017876;28;20111;-74